OAS2390 SKBO-SKNV
Flight info
| Callsign | OAS2390 |
|---|---|
| Flight time | 0h 25m |
| Altitude | 16000 |
| Route | LIXAG2T LIXAG |
| Aircraft | A20N/M-SDE2E3FGHIRWXY/LB1 |
Departure
| Time | 2026-04-26 22:24 |
|---|---|
| Airport | El Dorado International Airport (SKBO) |
Arrival
| Time | 2026-04-26 22:49 |
|---|---|
| Airport | Benito Salas Airport (SKNV) |
| Time | Latitude | Longitude | Altitude | Speed | Heading |
|---|---|---|---|---|---|
| 2026-04-26 21:35 | 4.70026 | -74.14164 | 8364 ft | 0 kts | 220° |
| 2026-04-26 21:54 | 4.70031 | -74.14160 | 8364 ft | 3 kts | 220° |
| 2026-04-26 21:54 | 4.70045 | -74.14148 | 8365 ft | 3 kts | 220° |
| 2026-04-26 21:54 | 4.70055 | -74.14133 | 8364 ft | 3 kts | 283° |
| 2026-04-26 21:54 | 4.70053 | -74.14127 | 8365 ft | 0 kts | 312° |
| 2026-04-26 21:59 | 4.70057 | -74.14131 | 8365 ft | 4 kts | 313° |
| 2026-04-26 21:59 | 4.70083 | -74.14148 | 8365 ft | 3 kts | 333° |
| 2026-04-26 21:59 | 4.70104 | -74.14159 | 8364 ft | 5 kts | 334° |
| 2026-04-26 22:00 | 4.70138 | -74.14186 | 8364 ft | 8 kts | 313° |
| 2026-04-26 22:00 | 4.70189 | -74.14213 | 8364 ft | 9 kts | 2° |
| 2026-04-26 22:00 | 4.70254 | -74.14223 | 8365 ft | 11 kts | 321° |
| 2026-04-26 22:00 | 4.70310 | -74.14289 | 8364 ft | 14 kts | 308° |
| 2026-04-26 22:01 | 4.70322 | -74.14376 | 8365 ft | 14 kts | 231° |
| 2026-04-26 22:01 | 4.70241 | -74.14442 | 8364 ft | 17 kts | 216° |
| 2026-04-26 22:01 | 4.70139 | -74.14518 | 8364 ft | 20 kts | 218° |
| 2026-04-26 22:01 | 4.70024 | -74.14606 | 8364 ft | 21 kts | 214° |
| 2026-04-26 22:02 | 4.69901 | -74.14696 | 8364 ft | 22 kts | 218° |
| 2026-04-26 22:02 | 4.69792 | -74.14779 | 8364 ft | 18 kts | 215° |
| 2026-04-26 22:02 | 4.69701 | -74.14773 | 8364 ft | 12 kts | 133° |
| 2026-04-26 22:02 | 4.69654 | -74.14714 | 8364 ft | 10 kts | 128° |
| 2026-04-26 22:03 | 4.69615 | -74.14664 | 8364 ft | 8 kts | 126° |
| 2026-04-26 22:03 | 4.69584 | -74.14622 | 8364 ft | 7 kts | 126° |
| 2026-04-26 22:03 | 4.69560 | -74.14588 | 8364 ft | 5 kts | 127° |
| 2026-04-26 22:03 | 4.69550 | -74.14576 | 8364 ft | 0 kts | 127° |
| 2026-04-26 22:16 | 4.69531 | -74.14551 | 8365 ft | 8 kts | 131° |
| 2026-04-26 22:16 | 4.69452 | -74.14545 | 8365 ft | 17 kts | 203° |
| 2026-04-26 22:16 | 4.69358 | -74.14624 | 8362 ft | 16 kts | 247° |
| 2026-04-26 22:17 | 4.69383 | -74.14714 | 8362 ft | 16 kts | 306° |
| 2026-04-26 22:17 | 4.69471 | -74.14833 | 8363 ft | 26 kts | 306° |
| 2026-04-26 22:17 | 4.69604 | -74.15008 | 8363 ft | 36 kts | 306° |
| 2026-04-26 22:17 | 4.69760 | -74.15214 | 8365 ft | 38 kts | 307° |
| 2026-04-26 22:18 | 4.69911 | -74.15413 | 8365 ft | 34 kts | 306° |
| 2026-04-26 22:18 | 4.70048 | -74.15519 | 8363 ft | 19 kts | 24° |
| 2026-04-26 22:18 | 4.70150 | -74.15448 | 8364 ft | 17 kts | 31° |
| 2026-04-26 22:18 | 4.70234 | -74.15480 | 8364 ft | 12 kts | 309° |
| 2026-04-26 22:19 | 4.70289 | -74.15551 | 8364 ft | 13 kts | 307° |
| 2026-04-26 22:19 | 4.70341 | -74.15621 | 8364 ft | 12 kts | 307° |
| 2026-04-26 22:19 | 4.70401 | -74.15703 | 8364 ft | 20 kts | 307° |
| 2026-04-26 22:19 | 4.70504 | -74.15836 | 8364 ft | 28 kts | 306° |
| 2026-04-26 22:20 | 4.70622 | -74.15993 | 8364 ft | 26 kts | 307° |
| 2026-04-26 22:20 | 4.70694 | -74.16087 | 8364 ft | 25 kts | 307° |
| 2026-04-26 22:20 | 4.70825 | -74.16261 | 8364 ft | 22 kts | 307° |
| 2026-04-26 22:20 | 4.70914 | -74.16379 | 8364 ft | 20 kts | 307° |
| 2026-04-26 22:21 | 4.70996 | -74.16488 | 8363 ft | 19 kts | 307° |
| 2026-04-26 22:21 | 4.71074 | -74.16588 | 8364 ft | 18 kts | 307° |
| 2026-04-26 22:21 | 4.71143 | -74.16680 | 8363 ft | 16 kts | 306° |
| 2026-04-26 22:21 | 4.71200 | -74.16760 | 8363 ft | 12 kts | 292° |
| 2026-04-26 22:22 | 4.71183 | -74.16809 | 8363 ft | 5 kts | 227° |
| 2026-04-26 22:22 | 4.71158 | -74.16827 | 8363 ft | 4 kts | 217° |
| 2026-04-26 22:22 | 4.71120 | -74.16856 | 8362 ft | 13 kts | 217° |
| 2026-04-26 22:22 | 4.71029 | -74.16885 | 8362 ft | 10 kts | 150° |
| 2026-04-26 22:23 | 4.70958 | -74.16800 | 8363 ft | 34 kts | 127° |
| 2026-04-26 22:23 | 4.70710 | -74.16467 | 8365 ft | 84 kts | 127° |
| 2026-04-26 22:23 | 4.70247 | -74.15857 | 8363 ft | 136 kts | 127° |
| 2026-04-26 22:23 | 4.69590 | -74.14989 | 8369 ft | 174 kts | 127° |
| 2026-04-26 22:24 | 4.68862 | -74.14060 | 8844 ft | 170 kts | 126° |
| 2026-04-26 22:24 | 4.68241 | -74.12994 | 9050 ft | 185 kts | 119° |
| 2026-04-26 22:24 | 4.67282 | -74.12126 | 9296 ft | 193 kts | 163° |
| 2026-04-26 22:24 | 4.65980 | -74.12239 | 9598 ft | 194 kts | 211° |
| 2026-04-26 22:25 | 4.65182 | -74.13265 | 9874 ft | 195 kts | 257° |
| 2026-04-26 22:25 | 4.65106 | -74.14656 | 10116 ft | 208 kts | 268° |
| 2026-04-26 22:25 | 4.64661 | -74.16086 | 10268 ft | 226 kts | 239° |
| 2026-04-26 22:25 | 4.63812 | -74.17469 | 10522 ft | 239 kts | 237° |
| 2026-04-26 22:26 | 4.62879 | -74.18866 | 10918 ft | 243 kts | 236° |
| 2026-04-26 22:26 | 4.61936 | -74.20325 | 11229 ft | 258 kts | 243° |
| 2026-04-26 22:26 | 4.61325 | -74.22057 | 11608 ft | 273 kts | 256° |
| 2026-04-26 22:26 | 4.60911 | -74.23980 | 11888 ft | 291 kts | 259° |
| 2026-04-26 22:27 | 4.60495 | -74.25974 | 12388 ft | 299 kts | 254° |
| 2026-04-26 22:27 | 4.59614 | -74.27871 | 13010 ft | 304 kts | 234° |
| 2026-04-26 22:27 | 4.58242 | -74.29490 | 13717 ft | 307 kts | 227° |
| 2026-04-26 22:27 | 4.56750 | -74.31035 | 14380 ft | 310 kts | 226° |
| 2026-04-26 22:28 | 4.55228 | -74.32584 | 15005 ft | 313 kts | 226° |
| 2026-04-26 22:28 | 4.53694 | -74.34141 | 15542 ft | 316 kts | 224° |
| 2026-04-26 22:28 | 4.51938 | -74.35507 | 15802 ft | 329 kts | 210° |
| 2026-04-26 22:28 | 4.49875 | -74.36664 | 15798 ft | 352 kts | 210° |
| 2026-04-26 22:29 | 4.47718 | -74.37905 | 15777 ft | 371 kts | 211° |
| 2026-04-26 22:29 | 4.45466 | -74.39225 | 15762 ft | 377 kts | 211° |
| 2026-04-26 22:29 | 4.43207 | -74.40560 | 15751 ft | 378 kts | 211° |
| 2026-04-26 22:29 | 4.40946 | -74.41902 | 15756 ft | 377 kts | 211° |
| 2026-04-26 22:30 | 4.38691 | -74.43244 | 15762 ft | 377 kts | 211° |
| 2026-04-26 22:30 | 4.36430 | -74.44591 | 15764 ft | 378 kts | 211° |
| 2026-04-26 22:30 | 4.34173 | -74.45938 | 15743 ft | 378 kts | 211° |
| 2026-04-26 22:30 | 4.31914 | -74.47285 | 15727 ft | 378 kts | 211° |
| 2026-04-26 22:31 | 4.29657 | -74.48632 | 15706 ft | 378 kts | 211° |
| 2026-04-26 22:31 | 4.27428 | -74.49962 | 15640 ft | 378 kts | 211° |
| 2026-04-26 22:31 | 4.25172 | -74.51308 | 15630 ft | 378 kts | 211° |
| 2026-04-26 22:31 | 4.22914 | -74.52654 | 15619 ft | 378 kts | 211° |
| 2026-04-26 22:32 | 4.20655 | -74.54002 | 15708 ft | 378 kts | 211° |
| 2026-04-26 22:32 | 4.18395 | -74.55350 | 15708 ft | 378 kts | 211° |
| 2026-04-26 22:32 | 4.16138 | -74.56697 | 15711 ft | 378 kts | 211° |
| 2026-04-26 22:32 | 4.13881 | -74.58043 | 15709 ft | 378 kts | 211° |
| 2026-04-26 22:33 | 4.11622 | -74.59390 | 15724 ft | 378 kts | 211° |
| 2026-04-26 22:33 | 4.07139 | -74.62063 | 15724 ft | 378 kts | 211° |
| 2026-04-26 22:33 | 4.04878 | -74.63411 | 15720 ft | 378 kts | 211° |
| 2026-04-26 22:34 | 4.02617 | -74.64759 | 15660 ft | 379 kts | 211° |
| 2026-04-26 22:34 | 4.00351 | -74.66110 | 15656 ft | 380 kts | 211° |
| 2026-04-26 22:34 | 3.98079 | -74.67465 | 15660 ft | 380 kts | 212° |
| 2026-04-26 22:34 | 3.95809 | -74.68818 | 15667 ft | 380 kts | 211° |
| 2026-04-26 22:35 | 3.93536 | -74.70173 | 15817 ft | 380 kts | 211° |
| 2026-04-26 22:35 | 3.91288 | -74.71513 | 16048 ft | 381 kts | 211° |
| 2026-04-26 22:35 | 3.89010 | -74.72871 | 16136 ft | 381 kts | 211° |
| 2026-04-26 22:35 | 3.86737 | -74.74241 | 16138 ft | 382 kts | 212° |
| 2026-04-26 22:36 | 3.84489 | -74.75659 | 16136 ft | 382 kts | 213° |
| 2026-04-26 22:36 | 3.82249 | -74.77089 | 16143 ft | 382 kts | 213° |
| 2026-04-26 22:36 | 3.80009 | -74.78520 | 16092 ft | 382 kts | 213° |
| 2026-04-26 22:36 | 3.77768 | -74.79952 | 16090 ft | 382 kts | 213° |
| 2026-04-26 22:37 | 3.75529 | -74.81381 | 16084 ft | 382 kts | 213° |
| 2026-04-26 22:37 | 3.73286 | -74.82812 | 16084 ft | 382 kts | 213° |
| 2026-04-26 22:37 | 3.71078 | -74.84222 | 16087 ft | 382 kts | 213° |
| 2026-04-26 22:37 | 3.68837 | -74.85651 | 15944 ft | 381 kts | 213° |
| 2026-04-26 22:38 | 3.66607 | -74.87073 | 15485 ft | 378 kts | 213° |
| 2026-04-26 22:38 | 3.64422 | -74.88467 | 15205 ft | 368 kts | 213° |
| 2026-04-26 22:38 | 3.62280 | -74.89833 | 14787 ft | 364 kts | 213° |
| 2026-04-26 22:38 | 3.60153 | -74.91190 | 14325 ft | 361 kts | 213° |
| 2026-04-26 22:39 | 3.58044 | -74.92534 | 13881 ft | 358 kts | 213° |
| 2026-04-26 22:39 | 3.55949 | -74.93871 | 13374 ft | 356 kts | 213° |
| 2026-04-26 22:39 | 3.53899 | -74.95179 | 12878 ft | 354 kts | 213° |
| 2026-04-26 22:39 | 3.51830 | -74.96498 | 12374 ft | 351 kts | 213° |
| 2026-04-26 22:40 | 3.49780 | -74.97805 | 11922 ft | 347 kts | 213° |
| 2026-04-26 22:40 | 3.47777 | -74.99082 | 11719 ft | 336 kts | 213° |
| 2026-04-26 22:40 | 3.45841 | -75.00316 | 11548 ft | 324 kts | 213° |
| 2026-04-26 22:40 | 3.43977 | -75.01504 | 11408 ft | 312 kts | 213° |
| 2026-04-26 22:41 | 3.42166 | -75.02659 | 11164 ft | 305 kts | 213° |
| 2026-04-26 22:41 | 3.40384 | -75.03795 | 10820 ft | 302 kts | 212° |
| 2026-04-26 22:41 | 3.38616 | -75.04923 | 10462 ft | 300 kts | 212° |
| 2026-04-26 22:41 | 3.36884 | -75.06027 | 10109 ft | 299 kts | 212° |
| 2026-04-26 22:42 | 3.35145 | -75.07136 | 9783 ft | 294 kts | 212° |
| 2026-04-26 22:42 | 3.33432 | -75.08228 | 9411 ft | 291 kts | 212° |
| 2026-04-26 22:42 | 3.31730 | -75.09312 | 8976 ft | 290 kts | 212° |
| 2026-04-26 22:42 | 3.30029 | -75.10396 | 8562 ft | 289 kts | 212° |
| 2026-04-26 22:43 | 3.28336 | -75.11475 | 8165 ft | 288 kts | 212° |
| 2026-04-26 22:43 | 3.26651 | -75.12548 | 7782 ft | 286 kts | 212° |
| 2026-04-26 22:43 | 3.24978 | -75.13614 | 7389 ft | 285 kts | 212° |
| 2026-04-26 22:43 | 3.23328 | -75.14665 | 6990 ft | 284 kts | 212° |
| 2026-04-26 22:44 | 3.21664 | -75.15726 | 6597 ft | 283 kts | 212° |
| 2026-04-26 22:44 | 3.20006 | -75.16782 | 6223 ft | 282 kts | 211° |
| 2026-04-26 22:44 | 3.18356 | -75.17833 | 5834 ft | 280 kts | 212° |
| 2026-04-26 22:44 | 3.16717 | -75.18877 | 5444 ft | 279 kts | 212° |
| 2026-04-26 22:45 | 3.15091 | -75.19912 | 5002 ft | 276 kts | 212° |
| 2026-04-26 22:45 | 3.13487 | -75.20934 | 4608 ft | 269 kts | 212° |
| 2026-04-26 22:45 | 3.11954 | -75.21911 | 4414 ft | 254 kts | 212° |
| 2026-04-26 22:45 | 3.10521 | -75.22824 | 4211 ft | 243 kts | 212° |
| 2026-04-26 22:46 | 3.09145 | -75.23701 | 4089 ft | 224 kts | 212° |
| 2026-04-26 22:46 | 3.07873 | -75.24511 | 3954 ft | 213 kts | 212° |
| 2026-04-26 22:46 | 3.06623 | -75.25297 | 3703 ft | 212 kts | 209° |
| 2026-04-26 22:46 | 3.05284 | -75.25901 | 3418 ft | 211 kts | 201° |
| 2026-04-26 22:47 | 3.03903 | -75.26399 | 3142 ft | 210 kts | 199° |
| 2026-04-26 22:47 | 3.02543 | -75.26868 | 2855 ft | 203 kts | 199° |
| 2026-04-26 22:47 | 3.01264 | -75.27306 | 2629 ft | 184 kts | 200° |
| 2026-04-26 22:47 | 3.00095 | -75.27709 | 2364 ft | 172 kts | 200° |
| 2026-04-26 22:48 | 2.99015 | -75.28084 | 2103 ft | 160 kts | 199° |
| 2026-04-26 22:48 | 2.98016 | -75.28463 | 1897 ft | 147 kts | 202° |
| 2026-04-26 22:48 | 2.97088 | -75.28866 | 1744 ft | 144 kts | 199° |
| 2026-04-26 22:48 | 2.96120 | -75.29147 | 1577 ft | 145 kts | 191° |
| 2026-04-26 22:49 | 2.95152 | -75.29375 | 1474 ft | 136 kts | 193° |
| 2026-04-26 22:49 | 2.94397 | -75.29562 | 1457 ft | 64 kts | 194° |
| 2026-04-26 22:49 | 2.94252 | -75.29603 | 1454 ft | 1 kts | 279° |
| 2026-04-26 22:49 | 2.94296 | -75.29595 | 1451 ft | 10 kts | 18° |
| 2026-04-26 22:50 | 2.94362 | -75.29576 | 1456 ft | 14 kts | 15° |
| 2026-04-26 22:50 | 2.94468 | -75.29546 | 1456 ft | 15 kts | 15° |
| 2026-04-26 22:50 | 2.94562 | -75.29521 | 1457 ft | 12 kts | 14° |
| 2026-04-26 22:50 | 2.94628 | -75.29497 | 1460 ft | 7 kts | 43° |
| 2026-04-26 22:51 | 2.94652 | -75.29466 | 1463 ft | 5 kts | 58° |
| 2026-04-26 22:51 | 2.94670 | -75.29413 | 1461 ft | 8 kts | 84° |
| 2026-04-26 22:51 | 2.94697 | -75.29380 | 1463 ft | 5 kts | 26° |
| 2026-04-26 22:51 | 2.94711 | -75.29366 | 1463 ft | 3 kts | 75° |
| 2026-04-26 22:52 | 2.94709 | -75.29337 | 1463 ft | 2 kts | 104° |
| 2026-04-26 22:52 | 2.94708 | -75.29330 | 1460 ft | 0 kts | 104° |